Time;durP1;ratioP1;P1;durP2;ratioP2;P2;SDS_P1;SDS_P2;PMS_P1;PMS_P2;Temp;Humidity;BMP_temperature;BMP_pressure;BME280_temperature;BME280_humidity;BME280_pressure;Samples;Min_cycle;Max_cycle;Signal;HPM_P1;HPM_P2
2022/04/17 00:02:12;;;;;;;10.30;7.10;;;7.00;99.90;;;;;;5085793;28;20031;-73
2022/04/17 00:04:40;;;;;;;10.90;7.60;;;7.00;99.90;;;;;;5104911;28;20030;-73
2022/04/17 00:07:06;;;;;;;9.38;7.78;;;7.00;99.90;;;;;;5111167;28;20027;-72
2022/04/17 00:09:32;;;;;;;9.32;7.63;;;7.10;99.90;;;;;;5102585;28;20086;-73
2022/04/17 00:11:58;;;;;;;11.07;7.78;;;7.00;99.90;;;;;;5085395;28;20155;-73
2022/04/17 00:14:24;;;;;;;12.35;7.93;;;7.00;99.90;;;;;;5101566;28;20032;-73
2022/04/17 00:16:49;;;;;;;10.13;7.72;;;6.90;99.90;;;;;;5087298;28;20048;-72
2022/04/17 00:19:15;;;;;;;10.90;7.50;;;6.90;99.90;;;;;;5097571;28;20052;-73
2022/04/17 00:21:41;;;;;;;10.80;7.38;;;6.80;99.90;;;;;;5079340;28;20044;-73
2022/04/17 00:24:12;;;;;;;9.77;7.88;;;6.80;99.90;;;;;;5101719;28;20111;-73
2022/04/17 00:26:38;;;;;;;10.10;7.90;;;6.80;99.90;;;;;;5113804;28;20035;-73
2022/04/17 00:29:03;;;;;;;10.98;8.20;;;6.70;99.90;;;;;;5089790;28;20032;-73
2022/04/17 00:31:29;;;;;;;11.18;7.57;;;6.70;99.90;;;;;;5072035;28;20203;-73
2022/04/17 00:33:55;;;;;;;12.35;8.93;;;6.60;99.90;;;;;;5086395;28;20024;-73
2022/04/17 00:36:20;;;;;;;10.63;7.90;;;6.60;99.90;;;;;;5103389;28;20098;-73
2022/04/17 00:38:46;;;;;;;11.63;8.43;;;6.90;99.90;;;;;;5088879;28;20024;-73
2022/04/17 00:41:14;;;;;;;10.40;8.18;;;6.40;99.90;;;;;;5083645;28;20028;-73
2022/04/17 00:43:45;;;;;;;10.18;8.10;;;6.70;99.90;;;;;;5080511;28;20043;-73
2022/04/17 00:46:11;;;;;;;11.23;7.80;;;6.30;99.90;;;;;;5103462;28;20262;-73
2022/04/17 00:48:37;;;;;;;10.25;8.30;;;6.40;99.90;;;;;;5097200;28;20038;-73
2022/04/17 00:51:06;;;;;;;10.48;8.63;;;6.20;99.90;;;;;;5070501;28;20032;-73
2022/04/17 00:53:34;;;;;;;10.38;7.68;;;6.20;99.90;;;;;;5084901;28;20040;-73
2022/04/17 00:56:00;;;;;;;12.65;8.85;;;6.10;99.90;;;;;;5117713;27;20055;-73
2022/04/17 00:58:30;;;;;;;10.88;7.88;;;6.00;99.90;;;;;;5105047;28;20063;-73
2022/04/17 01:00:55;;;;;;;10.60;9.25;;;6.10;99.90;;;;;;5121455;27;20084;-73
2022/04/17 01:03:21;;;;;;;13.13;9.18;;;5.70;99.90;;;;;;5105598;28;20031;-73
2022/04/17 01:05:47;;;;;;;13.23;9.48;;;5.50;99.90;;;;;;5132556;27;20066;-73
2022/04/17 01:08:13;;;;;;;11.38;8.38;;;5.50;99.90;;;;;;5116876;27;20047;-73
2022/04/17 01:10:39;;;;;;;12.35;8.40;;;5.40;99.90;;;;;;5114779;28;20114;-74
2022/04/17 01:13:09;;;;;;;11.93;8.60;;;5.40;99.90;;;;;;5113469;27;20026;-73
2022/04/17 01:15:38;;;;;;;11.35;7.40;;;5.40;99.90;;;;;;5140955;27;20133;-73
2022/04/17 01:18:04;;;;;;;11.93;9.05;;;5.50;99.90;;;;;;5126096;27;20118;-74
2022/04/17 01:20:30;;;;;;;10.55;8.13;;;5.50;99.90;;;;;;5102856;28;20314;-73
2022/04/17 01:28:38;;;;;;;10.48;7.70;;;5.80;99.90;;;;;;5132672;27;20096;-74
2022/04/17 01:31:04;;;;;;;11.45;7.90;;;5.60;99.90;;;;;;5124158;27;20051;-74
2022/04/17 01:33:30;;;;;;;11.57;8.55;;;5.50;99.90;;;;;;5105205;28;20318;-74
2022/04/17 01:35:56;;;;;;;12.00;7.85;;;5.50;99.90;;;;;;5116881;27;20360;-74
2022/04/17 01:38:21;;;;;;;11.52;8.57;;;5.50;99.90;;;;;;5115921;28;20039;-74
2022/04/17 01:40:47;;;;;;;11.05;8.38;;;5.50;99.90;;;;;;5103174;28;20039;-73
2022/04/17 01:43:13;;;;;;;10.23;8.27;;;5.40;99.90;;;;;;5104489;28;20075;-73
2022/04/17 01:45:38;;;;;;;10.25;7.72;;;5.30;99.90;;;;;;5121014;28;20031;-73
2022/04/17 01:48:05;;;;;;;11.77;8.52;;;5.30;99.90;;;;;;5103788;27;20023;-73
2022/04/17 01:50:32;;;;;;;10.15;8.00;;;5.30;99.90;;;;;;5140338;27;20043;-73
2022/04/17 01:53:01;;;;;;;10.30;8.23;;;5.20;99.90;;;;;;5103570;28;20244;-72
2022/04/17 01:55:28;;;;;;;11.05;7.68;;;5.20;99.90;;;;;;5109298;27;20051;-74
2022/04/17 01:57:53;;;;;;;10.68;7.93;;;5.70;99.90;;;;;;5110811;28;20313;-73
2022/04/17 02:00:19;;;;;;;10.68;8.52;;;5.20;99.90;;;;;;5107260;28;20090;-73
2022/04/17 02:02:45;;;;;;;10.65;8.18;;;5.20;99.90;;;;;;5110828;28;20366;-73
2022/04/17 02:05:11;;;;;;;11.27;7.80;;;5.10;99.90;;;;;;5135661;27;20038;-73
2022/04/17 02:07:37;;;;;;;12.13;8.63;;;5.10;99.90;;;;;;5118659;28;20039;-73
2022/04/17 02:10:06;;;;;;;9.93;7.88;;;4.90;99.90;;;;;;5117127;27;20043;-73
2022/04/17 02:12:33;;;;;;;10.43;7.60;;;4.70;99.90;;;;;;5090130;28;20028;-73
2022/04/17 02:15:00;;;;;;;10.70;7.45;;;4.80;99.90;;;;;;5104044;28;20061;-73
2022/04/17 02:17:34;;;;;;;10.60;7.68;;;4.80;99.90;;;;;;5123330;27;20209;-73
2022/04/17 02:20:00;;;;;;;11.85;8.50;;;4.80;99.90;;;;;;5119804;28;20113;-73
2022/04/17 02:22:25;;;;;;;10.95;7.63;;;4.90;99.90;;;;;;5120005;28;20023;-73
2022/04/17 02:24:51;;;;;;;12.73;7.65;;;4.80;99.90;;;;;;5103274;28;20031;-73
2022/04/17 02:27:17;;;;;;;13.77;8.25;;;4.80;99.90;;;;;;5092542;28;20038;-73
2022/04/17 02:29:42;;;;;;;11.50;7.68;;;4.70;99.90;;;;;;5106864;28;20027;-73
2022/04/17 02:32:08;;;;;;;11.82;7.60;;;4.70;99.90;;;;;;5118413;28;20035;-73
2022/04/17 02:34:34;;;;;;;10.57;7.75;;;4.70;99.90;;;;;;5138445;28;20075;-73
2022/04/17 02:36:59;;;;;;;11.75;7.78;;;4.70;99.90;;;;;;5138247;28;20357;-73
2022/04/17 02:39:25;;;;;;;9.75;7.38;;;4.60;99.90;;;;;;5116647;28;20039;-73
2022/04/17 02:41:50;;;;;;;9.48;7.15;;;4.50;99.90;;;;;;5088701;28;20152;-73
2022/04/17 02:44:16;;;;;;;8.95;7.63;;;4.30;99.90;;;;;;5097632;28;20043;-73
2022/04/17 02:49:26;;;;;;;10.85;7.88;;;4.10;99.90;;;;;;5137821;27;20047;-72
2022/04/17 02:51:51;;;;;;;11.50;7.63;;;4.00;99.90;;;;;;5123486;27;20086;-72
2022/04/17 02:54:17;;;;;;;12.48;8.00;;;4.00;99.90;;;;;;5105315;28;20063;-72
2022/04/17 02:56:44;;;;;;;10.73;7.90;;;3.90;99.90;;;;;;5093423;28;20036;-72
2022/04/17 02:59:09;;;;;;;10.35;7.90;;;3.90;99.90;;;;;;5105667;28;20070;-73
2022/04/17 03:07:04;;;;;;;12.10;8.70;;;3.90;99.90;;;;;;5107637;28;20035;-72
2022/04/17 03:09:29;;;;;;;12.65;9.55;;;3.90;99.90;;;;;;5104228;28;20036;-72
2022/04/17 03:11:55;;;;;;;15.30;10.13;;;4.80;99.90;;;;;;5104832;28;20031;-72
2022/04/17 03:14:21;;;;;;;13.20;10.68;;;3.90;99.90;;;;;;5085733;28;20094;-72
2022/04/17 03:16:46;;;;;;;16.70;12.25;;;4.40;99.90;;;;;;5117939;28;20028;-72
2022/04/17 03:19:13;;;;;;;18.55;14.15;;;3.90;99.90;;;;;;5104515;28;20024;-73
2022/04/17 03:21:38;;;;;;;18.80;14.75;;;3.80;99.90;;;;;;5096588;28;20070;-73
2022/04/17 03:24:04;;;;;;;19.25;14.82;;;3.80;99.90;;;;;;5070022;28;20032;-73
2022/04/17 03:26:30;;;;;;;19.27;15.60;;;3.70;99.90;;;;;;5089954;28;20028;-73
2022/04/17 03:28:59;;;;;;;24.40;18.45;;;3.70;99.90;;;;;;5111742;28;20322;-74
2022/04/17 03:31:25;;;;;;;24.25;18.67;;;3.70;99.90;;;;;;5069442;28;20106;-72
2022/04/17 03:33:51;;;;;;;28.25;21.45;;;3.60;99.90;;;;;;5083780;28;20023;-72
2022/04/17 03:36:17;;;;;;;29.20;23.98;;;3.70;99.90;;;;;;5101838;28;20057;-72
2022/04/17 03:38:42;;;;;;;31.65;23.65;;;4.30;99.90;;;;;;5102420;28;20027;-72
2022/04/17 03:41:08;;;;;;;31.08;23.17;;;3.70;99.90;;;;;;5099353;28;20249;-72
2022/04/17 03:43:37;;;;;;;31.00;24.08;;;3.80;99.90;;;;;;5083560;28;20028;-72
2022/04/17 03:46:02;;;;;;;34.60;24.20;;;4.50;99.90;;;;;;5068022;28;20047;-73
2022/04/17 03:48:28;;;;;;;29.10;22.83;;;3.80;99.90;;;;;;5102523;28;20038;-71
2022/04/17 03:50:54;;;;;;;27.63;22.92;;;3.80;99.90;;;;;;5085638;28;20065;-73
2022/04/17 03:53:19;;;;;;;31.60;24.40;;;3.80;99.90;;;;;;5080671;28;20051;-73
2022/04/17 03:55:45;;;;;;;34.40;25.05;;;3.80;99.90;;;;;;5091842;28;20086;-74
2022/04/17 03:58:11;;;;;;;36.25;24.98;;;4.70;99.90;;;;;;5121194;27;20039;-73
2022/04/17 04:00:37;;;;;;;33.95;24.65;;;3.80;99.90;;;;;;5108283;27;20234;-73
2022/04/17 04:03:04;;;;;;;37.80;26.52;;;3.80;99.90;;;;;;5101232;28;20027;-73
2022/04/17 04:05:29;;;;;;;37.97;27.90;;;3.80;99.90;;;;;;5106446;28;20237;-73
2022/04/17 04:07:55;;;;;;;33.25;25.25;;;4.70;99.90;;;;;;5101175;28;20106;-73
2022/04/17 04:10:21;;;;;;;33.25;24.10;;;4.30;99.90;;;;;;5104878;27;20034;-73
2022/04/17 04:12:46;;;;;;;35.58;23.23;;;3.90;99.90;;;;;;5082765;27;20032;-73
2022/04/17 04:15:12;;;;;;;30.73;24.45;;;3.90;99.90;;;;;;5111719;28;20031;-73
2022/04/17 04:17:38;;;;;;;32.30;24.80;;;4.00;99.90;;;;;;5116841;27;20072;-72
2022/04/17 04:20:05;;;;;;;36.47;23.15;;;4.70;99.90;;;;;;5121644;28;20031;-73
2022/04/17 04:22:30;;;;;;;34.75;24.80;;;3.90;99.90;;;;;;5088324;27;20042;-72
2022/04/17 04:24:56;;;;;;;32.75;25.15;;;4.40;99.90;;;;;;5137548;27;20102;-73
2022/04/17 04:30:06;;;;;;;34.13;24.30;;;4.00;99.90;;;;;;5130149;27;20067;-73
2022/04/17 04:32:32;;;;;;;34.08;25.75;;;4.00;99.90;;;;;;5133851;27;20098;-73
2022/04/17 04:35:01;;;;;;;34.53;25.20;;;3.90;99.90;;;;;;5088671;28;20019;-73
2022/04/17 04:37:27;;;;;;;38.28;26.98;;;3.90;99.90;;;;;;5114005;28;20039;-73
2022/04/17 04:39:53;;;;;;;32.75;24.48;;;3.90;99.90;;;;;;5141048;27;20052;-73
2022/04/17 04:42:22;;;;;;;32.38;23.33;;;3.90;99.90;;;;;;5120577;28;20028;-72
2022/04/17 04:46:06;;;;;;;35.42;24.42;;;3.90;99.90;;;;;;5114975;28;20030;-73
2022/04/17 04:47:34;;;;;;;37.20;26.90;;;3.80;99.90;;;;;;5126951;27;20238;-73
2022/04/17 04:50:03;;;;;;;30.60;23.55;;;3.90;99.90;;;;;;5121325;28;20121;-73
2022/04/17 04:52:28;;;;;;;33.42;23.35;;;3.80;99.90;;;;;;5136340;27;20047;-73
2022/04/17 04:54:54;;;;;;;33.55;23.73;;;3.80;99.90;;;;;;5128095;27;20353;-73
2022/04/17 04:57:20;;;;;;;34.92;23.17;;;4.00;99.90;;;;;;5137855;27;21389;-73
2022/04/17 04:59:45;;;;;;;31.55;23.35;;;4.10;99.90;;;;;;5124637;27;20057;-73
2022/04/17 05:02:11;;;;;;;35.42;24.25;;;4.70;99.90;;;;;;5093420;27;20199;-73
2022/04/17 05:04:37;;;;;;;38.30;23.98;;;4.00;99.90;;;;;;5119154;27;20217;-73
2022/04/17 05:07:03;;;;;;;29.77;22.63;;;3.90;99.90;;;;;;5130547;27;20292;-73
2022/04/17 05:09:28;;;;;;;33.75;23.85;;;4.00;99.90;;;;;;5105085;27;20027;-73
2022/04/17 05:11:54;;;;;;;35.00;21.77;;;4.00;99.90;;;;;;5124652;27;20027;-73
2022/04/17 05:14:20;;;;;;;36.28;23.42;;;4.20;99.90;;;;;;5108383;27;20096;-73
2022/04/17 05:16:46;;;;;;;30.85;22.85;;;4.10;99.90;;;;;;5110733;28;20028;-73
2022/04/17 05:22:10;;;;;;;30.03;22.43;;;4.20;99.90;;;;;;5128463;27;20105;-73
2022/04/17 05:24:38;;;;;;;27.08;21.08;;;4.40;99.90;;;;;;5106638;28;20031;-72
2022/04/17 05:27:04;;;;;;;24.80;19.02;;;4.60;99.90;;;;;;5104224;28;20081;-72
2022/04/17 05:29:30;;;;;;;26.70;19.50;;;4.70;99.90;;;;;;5115308;27;20078;-72
2022/04/17 05:31:55;;;;;;;25.77;18.88;;;4.60;99.90;;;;;;5124249;27;20030;-73
2022/04/17 05:34:21;;;;;;;24.55;17.83;;;4.70;99.90;;;;;;5121449;27;20028;-73
2022/04/17 05:36:47;;;;;;;23.77;17.02;;;4.80;99.90;;;;;;5121524;27;20031;-73
2022/04/17 05:39:12;;;;;;;23.58;16.50;;;4.80;99.90;;;;;;5105415;27;20194;-73
2022/04/17 05:41:41;;;;;;;25.33;17.05;;;4.90;99.90;;;;;;5138792;27;20131;-72
2022/04/17 05:44:08;;;;;;;23.35;16.42;;;5.00;99.90;;;;;;5120368;28;20031;-72
2022/04/17 05:46:39;;;;;;;24.58;18.20;;;5.00;99.90;;;;;;5107441;28;20039;-73
2022/04/17 05:49:06;;;;;;;23.33;18.52;;;5.10;99.90;;;;;;5103592;28;20074;-73
2022/04/17 05:51:39;;;;;;;26.73;16.63;;;5.90;99.90;;;;;;5135430;27;20293;-74
2022/04/17 05:54:08;;;;;;;23.90;16.10;;;5.20;99.90;;;;;;5139201;27;20043;-74
2022/04/17 05:56:37;;;;;;;22.38;15.73;;;5.50;99.90;;;;;;5088958;27;20216;-73
2022/04/17 05:59:04;;;;;;;22.88;17.17;;;5.40;99.90;;;;;;5122119;27;20042;-73
2022/04/17 06:01:30;;;;;;;24.40;17.05;;;5.50;99.90;;;;;;5126900;27;20040;-72
2022/04/17 06:03:55;;;;;;;24.70;16.52;;;5.50;99.90;;;;;;5121829;27;20062;-72
2022/04/17 06:06:21;;;;;;;23.38;15.52;;;5.60;99.90;;;;;;5106860;27;20035;-73
2022/04/17 06:08:47;;;;;;;23.92;16.25;;;5.70;99.90;;;;;;5115595;27;20023;-74
2022/04/17 06:11:13;;;;;;;22.45;16.13;;;5.80;99.90;;;;;;5123933;27;20065;-75
2022/04/17 06:13:39;;;;;;;21.10;15.65;;;5.90;99.90;;;;;;5118947;27;20038;-73
2022/04/17 06:16:05;;;;;;;21.50;15.13;;;6.00;99.90;;;;;;5121546;27;20209;-74
2022/04/17 06:18:30;;;;;;;22.02;14.82;;;6.20;99.90;;;;;;5107145;27;20019;-73
2022/04/17 06:21:00;;;;;;;21.08;14.95;;;6.30;99.90;;;;;;5107146;27;20039;-74
2022/04/17 06:23:27;;;;;;;20.17;15.88;;;6.40;99.90;;;;;;5120897;28;20108;-74
2022/04/17 06:25:53;;;;;;;19.88;15.25;;;6.50;99.90;;;;;;5120855;28;20212;-74
2022/04/17 06:28:18;;;;;;;24.75;14.52;;;6.70;99.90;;;;;;5113671;27;20031;-74
2022/04/17 06:30:44;;;;;;;20.95;15.60;;;6.80;99.90;;;;;;5123758;28;20031;-74
2022/04/17 06:33:10;;;;;;;19.50;14.77;;;6.90;99.90;;;;;;5112988;27;20069;-74
2022/04/17 06:35:35;;;;;;;17.60;12.35;;;7.00;99.90;;;;;;5123206;28;20035;-73
2022/04/17 06:38:02;;;;;;;20.33;13.43;;;7.10;99.90;;;;;;5090873;27;20058;-73
2022/04/17 06:40:36;;;;;;;18.40;12.80;;;7.30;99.90;;;;;;5106562;27;20038;-73
2022/04/17 06:43:11;;;;;;;20.58;14.18;;;7.60;99.90;;;;;;5122270;28;20093;-73
2022/04/17 06:45:38;;;;;;;18.25;13.88;;;7.60;99.90;;;;;;5129864;27;20082;-73
2022/04/17 06:48:15;;;;;;;19.75;13.75;;;7.70;99.90;;;;;;5121870;27;20272;-72
2022/04/17 06:50:44;;;;;;;19.08;13.48;;;8.00;99.90;;;;;;5123381;28;20035;-72
2022/04/17 06:53:13;;;;;;;18.58;12.68;;;8.10;99.90;;;;;;5134879;28;20091;-72
2022/04/17 06:55:39;;;;;;;17.77;12.80;;;8.20;99.90;;;;;;5087526;27;20255;-73
2022/04/17 06:58:05;;;;;;;16.30;12.18;;;8.40;99.90;;;;;;5104754;27;20043;-73
2022/04/17 07:00:31;;;;;;;18.60;13.05;;;8.40;99.90;;;;;;5123470;27;20106;-73
2022/04/17 07:03:13;;;;;;;16.08;11.50;;;8.60;99.90;;;;;;5128691;27;20042;-73
2022/04/17 07:05:39;;;;;;;14.23;10.10;;;8.80;99.90;;;;;;5137084;27;20031;-73
2022/04/17 07:08:08;;;;;;;15.05;10.48;;;8.80;99.90;;;;;;5111888;28;20027;-73
2022/04/17 07:10:37;;;;;;;17.95;10.98;;;8.90;99.90;;;;;;5115372;27;20058;-72
2022/04/17 07:13:18;;;;;;;14.43;10.75;;;9.00;99.90;;;;;;5125774;27;20046;-72
2022/04/17 07:15:44;;;;;;;16.33;11.35;;;9.00;99.90;;;;;;5109202;28;20030;-71
2022/04/17 07:18:10;;;;;;;13.88;10.93;;;9.10;99.90;;;;;;5088994;28;20201;-72
2022/04/17 07:20:35;;;;;;;15.68;10.82;;;9.20;99.90;;;;;;5110579;27;20126;-72
2022/04/17 07:23:01;;;;;;;17.30;10.60;;;9.40;99.90;;;;;;5122336;27;20063;-71
2022/04/17 07:25:27;;;;;;;11.20;8.95;;;9.50;99.90;;;;;;5106480;27;20267;-73
2022/04/17 07:27:55;;;;;;;15.48;11.32;;;9.60;99.90;;;;;;5128167;28;20050;-73
2022/04/17 07:30:32;;;;;;;13.55;9.07;;;9.80;99.90;;;;;;5104876;28;20422;-73
2022/04/17 07:32:59;;;;;;;13.75;10.57;;;9.80;99.90;;;;;;5129760;28;20035;-73
2022/04/17 07:35:27;;;;;;;13.07;8.80;;;9.90;99.90;;;;;;5108191;27;20207;-72
2022/04/17 07:37:55;;;;;;;17.23;10.93;;;9.90;99.90;;;;;;5126162;27;20060;-72
2022/04/17 07:40:29;;;;;;;12.48;9.73;;;10.00;99.90;;;;;;5133339;27;20026;-72
2022/04/17 07:42:58;;;;;;;12.00;8.50;;;9.80;99.90;;;;;;5133654;27;20039;-72
2022/04/17 07:45:24;;;;;;;13.30;8.25;;;10.30;99.90;;;;;;5140291;27;20058;-72
2022/04/17 07:47:50;;;;;;;10.52;8.40;;;10.40;99.90;;;;;;5109391;27;20056;-72
2022/04/17 07:50:18;;;;;;;13.50;9.85;;;10.60;99.90;;;;;;5118979;27;20095;-71
2022/04/17 07:52:44;;;;;;;14.27;8.93;;;10.70;99.90;;;;;;5109621;27;20031;-71
2022/04/17 07:55:12;;;;;;;11.73;8.57;;;10.80;99.90;;;;;;5144724;27;20072;-71
2022/04/17 08:00:24;;;;;;;11.30;7.55;;;10.80;99.90;;;;;;5130961;27;20042;-71
2022/04/17 08:03:06;;;;;;;10.82;6.97;;;10.90;99.90;;;;;;5116884;27;20038;-72
2022/04/17 08:05:38;;;;;;;9.00;7.20;;;11.00;99.90;;;;;;5139736;27;20026;-73
2022/04/17 08:08:04;;;;;;;11.07;7.07;;;11.10;99.90;;;;;;5125270;27;20035;-73
2022/04/17 08:10:30;;;;;;;11.15;7.50;;;11.30;99.90;;;;;;5109821;27;20035;-72
2022/04/17 08:12:55;;;;;;;9.95;6.97;;;11.20;99.90;;;;;;5129767;27;20066;-73
2022/04/17 08:15:21;;;;;;;10.25;7.63;;;11.40;99.90;;;;;;5103806;27;20027;-73
2022/04/17 08:17:47;;;;;;;9.30;7.75;;;11.50;99.90;;;;;;5129956;27;20049;-73
2022/04/17 08:20:12;;;;;;;11.95;7.90;;;11.50;99.90;;;;;;5086413;27;20035;-73
2022/04/17 08:22:38;;;;;;;9.27;7.32;;;11.50;99.90;;;;;;5108541;27;20066;-70
2022/04/17 08:25:04;;;;;;;10.00;7.78;;;11.70;99.90;;;;;;5107224;27;20035;-71
2022/04/17 08:27:30;;;;;;;10.30;7.72;;;11.70;99.90;;;;;;5104752;27;20058;-72
2022/04/17 08:29:58;;;;;;;11.10;8.23;;;11.60;99.90;;;;;;5115904;27;20040;-72
2022/04/17 08:32:24;;;;;;;9.88;8.40;;;11.80;99.90;;;;;;5107174;27;20030;-72
2022/04/17 08:34:50;;;;;;;8.32;6.38;;;11.90;99.90;;;;;;5109425;27;20022;-72
2022/04/17 08:37:15;;;;;;;8.98;6.45;;;11.90;99.90;;;;;;5104060;27;20061;-72
2022/04/17 08:39:41;;;;;;;9.80;7.30;;;12.00;99.80;;;;;;5107090;27;20033;-72
2022/04/17 08:42:08;;;;;;;8.65;6.38;;;12.10;99.20;;;;;;5107819;27;20038;-72
2022/04/17 08:44:34;;;;;;;8.65;5.53;;;12.30;97.40;;;;;;5116655;27;20042;-72
2022/04/17 08:46:59;;;;;;;7.68;6.28;;;12.50;93.50;;;;;;5101690;27;20031;-70
2022/04/17 08:49:25;;;;;;;6.82;5.75;;;12.50;91.90;;;;;;5111685;27;20043;-71
2022/04/17 08:51:53;;;;;;;8.18;5.95;;;12.60;92.50;;;;;;5119603;27;20043;-70
2022/04/17 08:54:21;;;;;;;8.50;6.72;;;12.50;91.00;;;;;;5127937;27;20292;-70
2022/04/17 08:56:46;;;;;;;7.47;5.57;;;12.50;90.10;;;;;;5104178;27;20047;-70
2022/04/17 08:59:13;;;;;;;7.10;5.47;;;12.90;92.50;;;;;;5100255;27;20087;-70
2022/04/17 09:01:39;;;;;;;7.53;4.80;;;13.10;91.40;;;;;;5087662;27;20098;-70
2022/04/17 09:04:05;;;;;;;8.35;5.72;;;13.10;87.10;;;;;;5135793;27;20086;-71
2022/04/17 09:06:31;;;;;;;6.38;5.40;;;13.30;85.80;;;;;;5107910;27;20035;-72
2022/04/17 09:09:03;;;;;;;6.60;4.68;;;13.50;80.70;;;;;;5098498;27;20129;-70
2022/04/17 09:11:29;;;;;;;6.22;5.30;;;13.40;77.00;;;;;;5103364;27;20039;-71
2022/04/17 09:13:56;;;;;;;6.88;5.55;;;13.70;78.00;;;;;;5113061;27;20434;-71
2022/04/17 09:16:27;;;;;;;7.03;5.13;;;13.70;71.90;;;;;;5119789;27;20042;-71
2022/04/17 09:18:53;;;;;;;7.05;5.80;;;14.00;75.80;;;;;;5110894;27;20035;-72
2022/04/17 09:21:30;;;;;;;7.15;5.47;;;13.90;75.30;;;;;;5128071;27;20039;-71
2022/04/17 09:24:12;;;;;;;7.30;5.55;;;14.20;72.50;;;;;;5119723;27;20031;-71
2022/04/17 09:26:46;;;;;;;6.45;5.75;;;14.20;68.70;;;;;;5117733;27;20047;-71
2022/04/17 09:29:25;;;;;;;6.40;4.78;;;14.50;75.20;;;;;;5113374;27;20050;-71
2022/04/17 09:32:03;;;;;;;7.97;5.55;;;14.90;71.00;;;;;;5101286;27;20371;-72
2022/04/17 09:34:43;;;;;;;7.35;5.22;;;14.80;68.30;;;;;;5106278;27;20031;-72
2022/04/17 09:37:18;;;;;;;5.75;4.50;;;14.90;64.00;;;;;;5115031;27;20143;-72
2022/04/17 09:39:45;;;;;;;7.63;5.25;;;14.80;60.70;;;;;;5138437;27;20042;-71
2022/04/17 09:42:11;;;;;;;7.93;5.47;;;14.80;60.80;;;;;;5102400;27;20345;-71
2022/04/17 09:44:46;;;;;;;6.32;4.43;;;15.50;65.30;;;;;;5112346;27;20110;-72
2022/04/17 09:47:17;;;;;;;7.65;5.80;;;15.00;59.90;;;;;;5104642;27;20045;-71
2022/04/17 09:50:09;;;;;;;6.95;5.25;;;15.20;62.90;;;;;;5113264;27;20309;-72
2022/04/17 09:52:41;;;;;;;6.55;4.88;;;16.00;61.90;;;;;;5129231;27;20050;-72
2022/04/17 09:55:07;;;;;;;7.07;5.30;;;16.20;58.20;;;;;;5106091;28;20371;-72
2022/04/17 09:57:35;;;;;;;5.30;4.55;;;16.50;63.00;;;;;;5113084;27;20035;-72
2022/04/17 10:00:16;;;;;;;5.70;4.43;;;16.50;59.60;;;;;;5108410;27;20035;-72
2022/04/17 10:02:44;;;;;;;5.22;4.28;;;16.60;56.90;;;;;;5116757;27;20069;-72
2022/04/17 10:05:12;;;;;;;7.07;5.35;;;17.20;61.80;;;;;;5120882;27;20038;-72
2022/04/17 10:07:43;;;;;;;4.93;4.47;;;16.70;54.50;;;;;;5126610;27;20237;-72
2022/04/17 10:10:13;;;;;;;5.82;4.18;;;16.70;51.80;;;;;;5105911;28;20106;-71
2022/04/17 10:12:39;;;;;;;4.38;3.92;;;16.80;48.10;;;;;;5118245;27;20043;-71
2022/04/17 10:15:07;;;;;;;7.13;5.28;;;17.20;53.50;;;;;;5127075;27;20036;-71
2022/04/17 10:17:36;;;;;;;5.43;4.65;;;16.70;49.90;;;;;;5125538;27;20076;-71
2022/04/17 10:20:06;;;;;;;5.68;5.13;;;17.10;48.30;;;;;;5088423;27;20039;-71
2022/04/17 10:22:38;;;;;;;6.53;4.93;;;16.90;45.50;;;;;;5126493;27;20039;-71
2022/04/17 10:25:06;;;;;;;6.05;5.45;;;17.20;55.70;;;;;;5097760;28;20036;-71
2022/04/17 10:27:46;;;;;;;6.70;4.47;;;17.40;55.40;;;;;;5126747;27;20035;-72
2022/04/17 10:30:18;;;;;;;5.45;4.85;;;17.60;51.00;;;;;;5121695;28;20039;-72
2022/04/17 10:33:02;;;;;;;6.10;5.20;;;17.70;58.40;;;;;;5106333;28;20046;-71
2022/04/17 10:35:55;;;;;;;5.40;4.20;;;17.40;47.80;;;;;;5112965;28;20463;-72
2022/04/17 10:38:45;;;;;;;5.25;4.50;;;17.50;44.00;;;;;;5113889;28;20364;-72
2022/04/17 10:41:12;;;;;;;5.00;4.10;;;17.90;49.60;;;;;;5113150;28;20150;-72
2022/04/17 10:43:47;;;;;;;4.97;3.80;;;16.90;40.50;;;;;;5112124;28;20079;-72
2022/04/17 10:46:14;;;;;;;6.07;4.57;;;17.20;41.20;;;;;;5107276;28;20064;-73
2022/04/17 10:48:54;;;;;;;3.92;3.38;;;16.60;38.60;;;;;;5124411;28;20038;-73
2022/04/17 10:51:25;;;;;;;4.07;3.67;;;16.30;36.10;;;;;;5101093;28;20330;-73
2022/04/17 10:53:59;;;;;;;4.15;3.33;;;16.50;36.80;;;;;;5115356;28;20035;-73
2022/04/17 10:56:25;;;;;;;3.90;3.50;;;16.60;36.90;;;;;;5115229;28;20229;-73
2022/04/17 10:58:52;;;;;;;4.13;3.72;;;17.00;37.80;;;;;;5116652;27;20086;-73
2022/04/17 11:01:44;;;;;;;3.95;3.03;;;17.10;38.40;;;;;;5132435;27;20250;-72
2022/04/17 11:04:29;;;;;;;4.75;3.47;;;17.00;34.90;;;;;;5121163;27;20041;-73
2022/04/17 11:07:03;;;;;;;5.78;3.63;;;16.70;34.30;;;;;;5110639;28;20043;-73
2022/04/17 11:09:30;;;;;;;5.78;3.75;;;16.70;35.60;;;;;;5097029;28;20107;-73
2022/04/17 11:12:11;;;;;;;4.40;3.63;;;16.50;35.60;;;;;;5116104;28;20116;-73
2022/04/17 11:14:39;;;;;;;6.40;3.90;;;17.10;35.30;;;;;;5130655;27;20035;-73
2022/04/17 11:17:11;;;;;;;3.95;3.50;;;16.80;35.60;;;;;;5120045;27;20059;-73
2022/04/17 11:19:39;;;;;;;5.57;4.50;;;17.00;36.90;;;;;;5119500;27;20352;-73
2022/04/17 11:22:07;;;;;;;4.63;3.88;;;16.50;36.70;;;;;;5118011;28;20093;-73
2022/04/17 11:24:54;;;;;;;4.57;3.95;;;16.80;37.10;;;;;;5109511;27;20035;-73
2022/04/17 11:27:53;;;;;;;6.53;4.22;;;17.00;38.20;;;;;;5122062;27;20035;-73
2022/04/17 11:30:19;;;;;;;5.47;4.28;;;17.40;37.50;;;;;;5134589;27;20218;-73
2022/04/17 11:32:47;;;;;;;4.20;3.75;;;17.60;39.20;;;;;;5127981;27;20042;-73
2022/04/17 11:35:15;;;;;;;4.90;4.10;;;17.60;35.70;;;;;;5130222;27;20027;-72
2022/04/17 11:38:01;;;;;;;4.70;3.95;;;17.30;36.10;;;;;;5105411;28;20377;-72
2022/04/17 11:40:29;;;;;;;5.00;4.40;;;17.10;35.40;;;;;;5120720;27;20058;-73
2022/04/17 11:42:56;;;;;;;6.20;4.20;;;17.10;35.20;;;;;;5115145;27;20088;-73
2022/04/17 11:45:26;;;;;;;5.45;3.90;;;17.30;35.60;;;;;;5121594;27;20027;-73
2022/04/17 11:47:53;;;;;;;4.88;3.95;;;17.40;34.80;;;;;;5120981;27;20034;-73
2022/04/17 11:50:27;;;;;;;4.95;4.45;;;17.70;35.60;;;;;;5091283;28;20276;-72
2022/04/17 11:53:04;;;;;;;5.03;4.13;;;17.80;36.40;;;;;;5117193;27;20259;-72
2022/04/17 11:55:33;;;;;;;4.43;3.83;;;17.40;34.50;;;;;;5128464;27;20039;-72
2022/04/17 11:57:59;;;;;;;4.57;4.15;;;17.40;35.70;;;;;;5130088;27;20047;-72
2022/04/17 12:00:26;;;;;;;5.55;3.80;;;17.20;35.60;;;;;;5101489;27;20230;-72
2022/04/17 12:02:57;;;;;;;4.68;4.00;;;16.90;36.20;;;;;;5119281;27;20039;-72
2022/04/17 12:05:28;;;;;;;5.97;4.38;;;16.80;34.90;;;;;;5100705;27;20450;-72
2022/04/17 12:08:02;;;;;;;5.72;4.32;;;17.10;35.60;;;;;;5120106;27;20333;-72
2022/04/17 12:10:28;;;;;;;5.97;4.03;;;17.30;34.90;;;;;;5131404;27;20512;-72
2022/04/17 12:13:14;;;;;;;5.15;4.53;;;17.40;34.00;;;;;;5119777;27;20243;-72
2022/04/17 12:15:50;;;;;;;;;;;;;;;;;;;;;
2022/04/17 12:18:18;;;;;;;5.93;4.25;;;17.50;35.00;;;;;;5120047;27;20036;-72
2022/04/17 12:20:53;;;;;;;5.38;4.78;;;17.60;36.30;;;;;;5107761;27;20039;-72
2022/04/17 12:23:18;;;;;;;5.50;4.32;;;17.50;37.00;;;;;;5115742;27;20447;-72
2022/04/17 12:25:44;;;;;;;4.47;3.92;;;17.70;35.50;;;;;;5085548;27;20283;-72
2022/04/17 12:28:15;;;;;;;5.43;4.53;;;17.80;34.10;;;;;;5120395;27;20130;-72
2022/04/17 12:30:42;;;;;;;5.55;4.03;;;17.70;34.40;;;;;;5098127;28;20055;-72
2022/04/17 12:33:28;;;;;;;4.90;3.60;;;18.00;35.30;;;;;;5099833;28;20034;-73
2022/04/17 12:36:11;;;;;;;5.32;4.35;;;17.60;33.90;;;;;;5124192;27;20260;-72
2022/04/17 12:38:40;;;;;;;5.47;4.10;;;17.80;35.20;;;;;;5118159;27;20031;-73
2022/04/17 12:41:31;;;;;;;4.97;4.47;;;17.40;33.90;;;;;;5093419;27;20099;-72
2022/04/17 12:44:00;;;;;;;5.13;4.25;;;17.80;35.70;;;;;;5068633;28;20043;-72
2022/04/17 12:46:27;;;;;;;4.20;3.78;;;17.90;34.50;;;;;;5099001;28;20084;-72
2022/04/17 12:49:10;;;;;;;6.25;4.53;;;18.10;35.60;;;;;;5110891;27;20102;-72
2022/04/17 12:51:38;;;;;;;4.50;3.78;;;18.00;34.90;;;;;;5128055;27;20419;-71
2022/04/17 12:54:07;;;;;;;5.35;3.78;;;18.00;33.70;;;;;;5136737;27;20406;-71
2022/04/17 12:56:33;;;;;;;6.13;4.72;;;17.60;31.90;;;;;;5135093;27;20062;-71
2022/04/17 12:59:02;;;;;;;5.72;4.07;;;17.70;32.20;;;;;;5136055;27;20203;-72
2022/04/17 13:01:32;;;;;;;4.15;3.60;;;17.90;33.80;;;;;;5117876;27;20039;-71
2022/04/17 13:04:19;;;;;;;5.13;4.18;;;18.40;33.60;;;;;;5110556;28;20028;-71
2022/04/17 13:06:46;;;;;;;5.13;4.53;;;18.60;32.90;;;;;;5104807;27;20072;-72
2022/04/17 13:09:17;;;;;;;5.32;4.50;;;18.50;34.50;;;;;;5118989;27;20068;-72
2022/04/17 13:11:55;;;;;;;6.05;4.85;;;18.70;34.10;;;;;;5101706;28;20329;-72
2022/04/17 13:14:22;;;;;;;6.07;4.72;;;18.40;34.00;;;;;;5103171;28;20309;-72
2022/04/17 13:16:56;;;;;;;5.82;3.72;;;18.60;32.80;;;;;;5098970;28;20035;-71